Time;durP1;ratioP1;P1;durP2;ratioP2;P2;SDS_P1;SDS_P2;PMS_P1;PMS_P2;Temp;Humidity;BMP_temperature;BMP_pressure;BME280_temperature;BME280_humidity;BME280_pressure;Samples;Min_cycle;Max_cycle;Signal;HPM_P1;HPM_P2
2022/04/02 00:00:48;;;;;;;6.00;4.20;;;;;;;-0.96;77.48;98591.30;214358;1279;140684;-64
2022/04/02 00:05:52;;;;;;;5.90;4.20;;;;;;;-0.97;77.50;98580.98;214248;1277;141955;-64
2022/04/02 00:10:55;;;;;;;5.10;4.20;;;;;;;-0.96;77.70;98581.95;214543;1277;139985;-67
2022/04/02 00:15:59;;;;;;;7.40;4.80;;;;;;;-0.95;77.60;98576.17;214128;1279;139807;-64
2022/04/02 00:21:01;;;;;;;5.60;4.80;;;;;;;-0.95;77.83;98568.84;213995;1279;140369;-64
2022/04/02 00:26:05;;;;;;;4.90;4.40;;;;;;;-0.98;77.74;98566.80;212917;1279;139924;-64
2022/04/02 00:31:15;;;;;;;5.60;5.00;;;;;;;-1.00;77.91;98563.20;213424;1275;140375;-63
2022/04/02 00:36:21;;;;;;;9.90;7.20;;;;;;;-0.99;78.13;98564.14;213741;1277;140647;-64
2022/04/02 00:41:24;;;;;;;9.40;5.20;;;;;;;-0.96;78.29;98561.03;213473;1277;140689;-63
2022/04/02 00:46:27;;;;;;;6.60;5.60;;;;;;;-0.95;78.28;98562.80;213159;1279;141499;-65
2022/04/02 00:51:41;;;;;;;13.30;5.60;;;;;;;-0.97;78.17;98558.84;213627;1277;141786;-64
2022/04/02 00:56:44;;;;;;;10.40;4.60;;;;;;;-1.00;78.02;98559.79;213279;1277;162827;-63
2022/04/02 01:01:48;;;;;;;4.50;4.00;;;;;;;-1.05;78.07;98557.45;213978;1277;141482;-64
2022/04/02 01:06:51;;;;;;;8.10;4.70;;;;;;;-1.07;78.26;98552.65;213876;1277;143600;-63
2022/04/02 01:11:56;;;;;;;4.80;4.20;;;;;;;-1.08;78.17;98558.72;213768;1279;141375;-63
2022/04/02 01:17:01;;;;;;;5.90;5.30;;;;;;;-1.11;78.23;98560.34;213727;1277;142023;-63
2022/04/02 01:22:05;;;;;;;7.20;6.30;;;;;;;-1.13;78.19;98563.93;213045;1277;143701;-63
2022/04/02 01:27:08;;;;;;;8.20;5.70;;;;;;;-1.14;78.28;98564.24;215749;1277;140292;-66
2022/04/02 01:32:11;;;;;;;9.20;6.30;;;;;;;-1.11;78.26;98567.17;215688;1277;140160;-66
2022/04/02 01:37:15;;;;;;;5.70;5.10;;;;;;;-1.10;78.05;98563.60;215631;1277;140354;-66
2022/04/02 01:42:20;;;;;;;7.70;6.50;;;;;;;-1.09;77.94;98565.34;215752;1276;141648;-66
2022/04/02 01:47:25;;;;;;;5.80;4.40;;;;;;;-1.08;77.69;98564.44;215771;1276;140937;-64
2022/04/02 01:52:27;;;;;;;8.10;5.70;;;;;;;-1.06;77.61;98564.92;215064;1276;140233;-65
2022/04/02 01:57:30;;;;;;;4.30;3.90;;;;;;;-1.04;77.66;98567.35;213765;1276;144428;-63
2022/04/02 02:02:33;;;;;;;6.20;5.30;;;;;;;-1.01;77.42;98572.86;213768;1278;142555;-64
2022/04/02 02:07:36;;;;;;;7.20;5.30;;;;;;;-0.99;77.26;98574.25;214078;1277;140675;-64
2022/04/02 02:12:39;;;;;;;9.40;5.40;;;;;;;-0.97;77.08;98579.70;214280;1277;141366;-64
2022/04/02 02:17:46;;;;;;;9.70;5.70;;;;;;;-0.95;76.98;98581.44;213617;1277;142378;-64
2022/04/02 02:22:50;;;;;;;5.30;4.30;;;;;;;-0.93;76.78;98585.69;213353;1277;140943;-64
2022/04/02 02:27:53;;;;;;;4.30;3.60;;;;;;;-0.93;76.59;98587.02;213533;1277;142206;-64
2022/04/02 02:35:49;;;;;;;6.50;4.40;;;;;;;-0.98;76.45;98591.44;213212;1277;141602;-64
2022/04/02 02:38:21;;;;;;;7.50;5.60;;;;;;;-1.06;76.31;98598.64;212741;1277;141951;-62
2022/04/02 02:43:28;;;;;;;6.70;5.50;;;;;;;-1.13;76.64;98596.05;214589;1277;140342;-64
2022/04/02 02:48:31;;;;;;;7.00;5.40;;;;;;;-1.18;76.83;98592.80;213866;1277;140261;-64
2022/04/02 02:53:34;;;;;;;7.60;5.20;;;;;;;-1.24;76.85;98593.66;213595;1277;140924;-64
2022/04/02 02:58:38;;;;;;;5.50;4.60;;;;;;;-1.27;76.88;98597.98;214102;1277;141592;-64
2022/04/02 03:03:41;;;;;;;6.70;5.20;;;;;;;-1.31;77.10;98597.37;213560;1276;143877;-64
2022/04/02 03:08:43;;;;;;;8.80;4.70;;;;;;;-1.33;77.36;98599.72;213093;1277;150572;-63
2022/04/02 03:13:47;;;;;;;6.60;4.70;;;;;;;-1.34;77.46;98599.48;213719;1279;142349;-64
2022/04/02 03:18:51;;;;;;;5.30;4.60;;;;;;;-1.35;77.52;98599.62;214028;1277;139801;-64
2022/04/02 03:23:55;;;;;;;5.10;4.20;;;;;;;-1.36;77.65;98601.76;213597;1277;142354;-64
2022/04/02 03:29:00;;;;;;;7.40;5.70;;;;;;;-1.35;77.77;98600.98;214536;1277;140415;-64
2022/04/02 03:34:02;;;;;;;5.90;4.30;;;;;;;-1.35;77.90;98601.55;213699;1277;141878;-64
2022/04/02 03:39:04;;;;;;;9.40;5.10;;;;;;;-1.38;77.97;98602.69;213397;1277;141564;-64
2022/04/02 03:44:07;;;;;;;5.60;5.10;;;;;;;-1.38;78.08;98602.81;215706;1276;141461;-64
2022/04/02 03:49:13;;;;;;;5.30;4.20;;;;;;;-1.35;78.15;98604.98;215791;1276;141164;-66
2022/04/02 03:54:17;;;;;;;7.00;4.30;;;;;;;-1.34;77.97;98605.59;215563;1277;140437;-66
2022/04/02 03:59:20;;;;;;;7.10;3.60;;;;;;;-1.35;77.82;98608.99;215674;1277;139906;-66
2022/04/02 04:04:24;;;;;;;4.70;3.40;;;;;;;-1.41;77.82;98605.84;213298;1277;141083;-64
2022/04/02 04:09:27;;;;;;;10.70;4.50;;;;;;;-1.43;77.81;98611.89;214559;1279;141717;-64
2022/04/02 04:14:30;;;;;;;6.10;3.90;;;;;;;-1.47;77.84;98617.23;214761;1279;140457;-64
2022/04/02 04:19:34;;;;;;;4.80;3.50;;;;;;;-1.52;77.92;98618.57;214276;1277;140904;-63
2022/04/02 04:24:38;;;;;;;4.40;3.60;;;;;;;-1.58;77.69;98623.27;214101;1277;143165;-64
2022/04/02 04:29:40;;;;;;;5.50;4.10;;;;;;;-1.64;77.94;98624.07;213986;1277;141912;-64
2022/04/02 04:34:43;;;;;;;3.90;3.50;;;;;;;-1.68;78.03;98625.23;213296;1277;221441;-63
2022/04/02 04:39:46;;;;;;;7.20;4.70;;;;;;;-1.72;77.87;98627.36;213138;1281;141766;-63
2022/04/02 04:44:49;;;;;;;5.70;4.80;;;;;;;-1.75;77.96;98627.64;213267;1278;141612;-63
2022/04/02 04:49:52;;;;;;;6.30;4.40;;;;;;;-1.76;77.95;98632.02;213271;1278;141332;-63
2022/04/02 04:54:54;;;;;;;6.80;4.50;;;;;;;-1.73;78.31;98639.16;213882;1277;141921;-64
2022/04/02 04:59:57;;;;;;;8.70;4.60;;;;;;;-1.64;78.31;98639.55;213319;1277;141638;-63
2022/04/02 05:04:59;;;;;;;7.50;4.60;;;;;;;-1.58;78.21;98643.81;213120;1277;140122;-63
2022/04/02 05:10:24;;;;;;;7.90;3.70;;;;;;;-1.53;78.02;98643.63;213599;1277;140353;-63
2022/04/02 05:15:25;;;;;;;7.40;4.30;;;;;;;-1.49;78.00;98646.42;214451;1277;140738;-62
2022/04/02 05:20:28;;;;;;;5.90;4.50;;;;;;;-1.44;77.94;98649.83;213445;1277;142384;-63
2022/04/02 05:25:38;;;;;;;5.40;3.80;;;;;;;-1.44;77.68;98646.13;213438;1277;142285;-63
2022/04/02 05:30:41;;;;;;;7.50;6.10;;;;;;;-1.43;77.53;98650.85;214278;1277;141604;-63
2022/04/02 05:35:45;;;;;;;7.20;4.00;;;;;;;-1.42;77.50;98653.55;214396;1277;140989;-63
2022/04/02 05:40:49;;;;;;;6.30;4.70;;;;;;;-1.38;77.23;98656.86;213585;1277;141556;-63
2022/04/02 05:45:52;;;;;;;5.60;5.00;;;;;;;-1.36;77.18;98661.52;213047;1277;141927;-62
2022/04/02 05:50:58;;;;;;;4.90;4.20;;;;;;;-1.31;77.20;98664.86;215701;1277;141536;-67
2022/04/02 05:56:02;;;;;;;5.40;4.90;;;;;;;-1.23;77.11;98676.20;213684;1277;141001;-63
2022/04/02 06:01:13;;;;;;;14.10;5.70;;;;;;;-1.15;76.76;98677.48;215168;1277;141161;-63
2022/04/02 06:06:16;;;;;;;7.40;4.20;;;;;;;-1.06;76.59;98684.95;215472;1277;140734;-67
2022/04/02 06:11:19;;;;;;;12.70;5.70;;;;;;;-1.01;76.25;98685.93;214195;1277;140835;-65
2022/04/02 06:16:23;;;;;;;7.00;4.50;;;;;;;-0.94;76.11;98687.33;213696;1279;141451;-66
2022/04/02 06:21:26;;;;;;;8.40;5.40;;;;;;;-0.77;76.13;98686.63;214340;1278;141478;-65
2022/04/02 06:26:28;;;;;;;9.90;5.50;;;;;;;-0.69;75.57;98687.76;213542;1277;140974;-64
2022/04/02 06:31:30;;;;;;;7.30;4.60;;;;;;;-0.56;75.68;98688.90;213263;1278;142435;-65
2022/04/02 06:36:33;;;;;;;9.20;5.50;;;;;;;-0.41;75.24;98692.27;214258;1277;142360;-64
2022/04/02 06:41:35;;;;;;;7.00;5.20;;;;;;;-0.26;75.01;98698.23;213609;1277;152467;-64
2022/04/02 06:46:39;;;;;;;8.10;5.70;;;;;;;-0.18;74.44;98699.86;212666;1278;141577;-64
2022/04/02 06:51:43;;;;;;;12.50;6.80;;;;;;;-0.03;74.37;98700.55;213439;1277;231785;-65
2022/04/02 06:56:50;;;;;;;11.50;7.00;;;;;;;0.09;73.96;98704.39;214440;1278;140787;-65
2022/04/02 07:01:57;;;;;;;10.40;8.50;;;;;;;0.28;73.55;98711.65;212837;1278;140868;-63
2022/04/02 07:07:00;;;;;;;6.70;5.50;;;;;;;0.38;73.36;98717.89;213917;1278;141493;-63
2022/04/02 07:12:08;;;;;;;7.90;5.00;;;;;;;0.49;72.74;98716.27;213520;1277;141770;-64
2022/04/02 07:17:13;;;;;;;10.10;5.20;;;;;;;0.56;72.58;98717.63;213471;1276;142165;-64
2022/04/02 07:22:18;;;;;;;9.10;5.90;;;;;;;0.66;71.88;98718.77;213683;1277;143654;-65
2022/04/02 07:27:29;;;;;;;8.70;5.60;;;;;;;0.81;71.95;98718.16;214832;1276;140013;-63
2022/04/02 07:32:31;;;;;;;8.50;5.90;;;;;;;1.17;71.71;98721.37;213397;1278;141678;-65
2022/04/02 07:37:53;;;;;;;5.80;4.60;;;;;;;1.46;71.57;98725.33;213937;1278;140575;-65
2022/04/02 07:43:35;;;;;;;10.30;7.90;;;;;;;1.83;71.49;98726.95;214136;1279;139956;-65
2022/04/02 07:48:43;;;;;;;6.20;5.30;;;;;;;2.22;70.43;98726.94;213354;1277;140786;-64
2022/04/02 07:53:53;;;;;;;7.90;5.10;;;;;;;2.51;70.61;98731.55;215363;1277;140402;-68
2022/04/02 07:59:07;;;;;;;12.90;7.70;;;;;;;3.03;70.09;98730.52;215470;1277;140030;-70
2022/04/02 08:04:12;;;;;;;7.70;5.60;;;;;;;3.42;68.63;98725.92;215199;1278;142052;-69
2022/04/02 08:09:19;;;;;;;8.80;4.00;;;;;;;3.49;67.94;98729.96;214615;1278;139491;-68
2022/04/02 08:14:25;;;;;;;5.60;4.10;;;;;;;3.60;67.46;98729.23;213965;1278;140122;-67
2022/04/02 08:19:32;;;;;;;9.70;5.50;;;;;;;3.73;66.45;98731.53;214452;1278;139689;-67
2022/04/02 08:24:34;;;;;;;7.20;4.80;;;;;;;3.66;65.92;98733.33;213174;1278;139997;-64
2022/04/02 08:29:53;;;;;;;8.80;4.90;;;;;;;3.48;64.91;98734.42;214528;1278;139384;-65
2022/04/02 08:35:01;;;;;;;;;;;;;;;3.40;64.91;98738.30;214560;1278;139900;-66
2022/04/02 08:40:15;;;;;;;9.40;6.00;;;;;;;3.40;65.41;98742.52;214487;1277;126572;-65
2022/04/02 08:45:28;;;;;;;4.20;3.70;;;;;;;3.51;64.63;98745.31;214587;1277;140632;-65
2022/04/02 08:50:36;;;;;;;8.00;5.20;;;;;;;3.53;64.40;98745.22;213510;1277;141999;-64
2022/04/02 08:55:46;;;;;;;6.80;5.70;;;;;;;3.61;64.68;98745.30;213986;1278;140494;-64
2022/04/02 09:01:03;;;;;;;5.80;4.70;;;;;;;3.77;64.37;98752.02;213962;1279;141081;-65
2022/04/02 09:06:26;;;;;;;6.30;5.60;;;;;;;3.98;64.38;98747.42;214081;1277;139563;-66
2022/04/02 09:11:53;;;;;;;9.30;6.00;;;;;;;4.11;63.59;98756.40;212986;1277;140300;-64
2022/04/02 09:17:01;;;;;;;6.20;5.50;;;;;;;3.95;63.16;98753.70;213657;1278;138887;-64
2022/04/02 09:22:22;;;;;;;5.50;4.90;;;;;;;3.81;62.83;98757.83;213491;1278;139626;-64
2022/04/02 09:27:28;;;;;;;7.70;5.60;;;;;;;3.80;63.11;98756.98;214217;1278;139069;-66
2022/04/02 09:33:08;;;;;;;5.20;4.70;;;;;;;4.07;63.68;98756.71;214045;1278;141030;-64
2022/04/02 09:38:26;;;;;;;8.20;5.70;;;;;;;4.30;62.80;98754.82;213910;1277;140956;-64
2022/04/02 09:43:37;;;;;;;10.00;7.30;;;;;;;4.28;62.56;98753.71;213585;1278;139990;-64
2022/04/02 09:49:17;;;;;;;11.20;7.40;;;;;;;4.40;62.98;98753.76;213008;1278;139628;-65
2022/04/02 09:54:31;;;;;;;8.40;6.20;;;;;;;4.36;62.57;98756.84;215239;1278;140174;-64
2022/04/02 09:59:52;;;;;;;10.00;6.40;;;;;;;4.35;61.99;98753.96;215512;1277;141246;-68
2022/04/02 10:05:03;;;;;;;10.40;6.80;;;;;;;4.39;61.85;98754.30;215391;1277;140474;-65
2022/04/02 10:10:08;;;;;;;7.00;4.50;;;;;;;4.46;61.40;98749.03;215376;1278;139799;-69
2022/04/02 10:15:13;;;;;;;9.10;5.60;;;;;;;4.53;61.23;98745.27;214475;1277;642927;-66
2022/04/02 10:20:19;;;;;;;7.70;6.60;;;;;;;4.57;60.55;98746.96;213689;1279;150646;-65
2022/04/02 10:25:28;;;;;;;15.10;8.20;;;;;;;4.46;60.33;98746.27;213866;1279;141385;-65
2022/04/02 10:30:35;;;;;;;17.80;9.40;;;;;;;4.39;60.35;98747.19;214346;1279;139442;-65
2022/04/02 10:35:39;;;;;;;9.80;6.10;;;;;;;4.34;60.04;98755.73;213536;1277;140100;-66
2022/04/02 10:40:53;;;;;;;7.70;5.70;;;;;;;4.29;60.03;98756.26;213370;1277;140415;-65
2022/04/02 10:45:58;;;;;;;14.20;11.50;;;;;;;4.46;60.46;98756.66;213334;1278;140145;-65
2022/04/02 10:51:02;;;;;;;11.30;6.20;;;;;;;4.81;60.47;98755.05;213213;1279;139552;-63
2022/04/02 10:56:13;;;;;;;8.10;5.40;;;;;;;5.03;59.45;98749.48;214275;1278;141202;-64
2022/04/02 11:01:26;;;;;;;11.70;6.80;;;;;;;5.17;59.57;98744.20;213617;1277;140318;-63
2022/04/02 11:06:51;;;;;;;21.00;12.70;;;;;;;5.37;59.27;98740.70;213541;1278;142385;-62
2022/04/02 11:12:19;;;;;;;12.40;8.80;;;;;;;5.61;58.80;98738.35;213386;1278;139855;-64
2022/04/02 11:17:30;;;;;;;8.90;4.90;;;;;;;5.74;58.60;98740.59;212900;1278;139536;-62
2022/04/02 11:23:02;;;;;;;6.40;5.70;;;;;;;5.87;58.29;98741.83;213748;1278;139172;-66
2022/04/02 11:28:09;;;;;;;5.00;4.50;;;;;;;6.00;58.14;98737.64;213216;1279;142054;-69
2022/04/02 11:33:26;;;;;;;12.60;6.10;;;;;;;6.19;57.93;98736.73;214421;1278;140614;-65
2022/04/02 11:38:33;;;;;;;7.70;5.10;;;;;;;6.31;57.09;98739.61;214726;1277;140062;-65
2022/04/02 11:43:38;;;;;;;5.80;4.50;;;;;;;6.55;56.69;98736.66;214009;1279;139149;-66
2022/04/02 11:48:59;;;;;;;7.70;4.90;;;;;;;6.78;55.78;98734.55;214517;1276;141828;-66
2022/04/02 11:54:08;;;;;;;8.80;6.00;;;;;;;6.77;54.94;98731.94;215564;1276;140071;-67
2022/04/02 11:59:17;;;;;;;13.80;5.20;;;;;;;6.84;55.34;98731.44;215332;1276;142997;-64
2022/04/02 12:04:25;;;;;;;8.00;6.90;;;;;;;6.98;55.30;98735.97;215904;1276;140738;-68
2022/04/02 12:09:29;;;;;;;10.10;6.20;;;;;;;7.10;54.84;98735.58;215628;1277;139805;-68
2022/04/02 12:14:39;;;;;;;7.40;4.90;;;;;;;7.01;53.65;98738.87;215531;1279;139734;-68
2022/04/02 12:19:55;;;;;;;7.80;4.80;;;;;;;6.92;53.38;98732.45;215380;1279;140398;-67
2022/04/02 12:25:01;;;;;;;6.30;3.70;;;;;;;6.94;53.13;98728.88;215379;1277;140768;-66
2022/04/02 12:30:07;;;;;;;6.00;4.30;;;;;;;7.10;53.40;98732.05;214813;1277;140242;-65
2022/04/02 12:35:13;;;;;;;7.50;5.20;;;;;;;7.16;52.61;98730.89;214745;1277;139173;-65
2022/04/02 12:40:20;;;;;;;9.20;4.90;;;;;;;7.13;52.27;98734.38;214343;1279;140007;-67
2022/04/02 12:45:27;;;;;;;8.00;5.50;;;;;;;7.20;52.30;98727.67;214365;1277;139805;-66
2022/04/02 12:50:33;;;;;;;5.50;4.70;;;;;;;7.20;52.30;98732.55;214503;1277;150551;-65
2022/04/02 12:55:36;;;;;;;6.00;4.90;;;;;;;7.19;51.48;98731.41;212796;1277;139920;-67
2022/04/02 13:00:44;;;;;;;10.60;5.90;;;;;;;7.18;51.77;98737.60;214062;1277;138951;-64
2022/04/02 13:05:54;;;;;;;10.40;5.40;;;;;;;7.25;51.19;98736.20;213667;1277;140318;-64
2022/04/02 13:10:59;;;;;;;10.30;6.00;;;;;;;7.28;51.18;98741.30;213226;1277;141351;-64
2022/04/02 13:16:03;;;;;;;7.80;4.80;;;;;;;7.29;50.94;98748.84;213405;1278;220645;-65
2022/04/02 13:21:09;;;;;;;8.60;6.00;;;;;;;7.18;50.66;98748.21;213352;1277;139874;-65
2022/04/02 13:26:17;;;;;;;9.60;6.40;;;;;;;7.02;50.60;98749.24;214283;1277;139639;-65
2022/04/02 13:31:29;;;;;;;8.10;5.70;;;;;;;6.93;50.94;98757.34;214429;1277;139383;-63
2022/04/02 13:36:45;;;;;;;11.50;6.20;;;;;;;6.91;50.96;98757.80;213495;1277;139389;-65
2022/04/02 13:41:53;;;;;;;10.00;5.20;;;;;;;6.97;50.70;98762.44;213755;1277;139591;-65
2022/04/02 13:46:57;;;;;;;;;;;;;;;7.04;50.82;98759.50;214089;1277;139782;-68
2022/04/02 13:52:02;;;;;;;7.30;5.90;;;;;;;7.10;50.80;98762.95;214349;1277;126185;-64
2022/04/02 13:57:10;;;;;;;6.70;6.00;;;;;;;7.20;50.47;98766.20;213850;1277;139469;-65
2022/04/02 14:02:29;;;;;;;7.00;5.10;;;;;;;7.22;49.57;98773.30;215622;1277;139343;-68
2022/04/02 14:07:36;;;;;;;8.00;4.80;;;;;;;7.16;49.09;98771.96;215541;1277;139735;-65
2022/04/02 14:12:41;;;;;;;;;;;;;;;7.12;49.15;98769.45;215752;1277;140248;-67
2022/04/02 14:17:48;;;;;;;11.30;4.20;;;;;;;7.09;48.40;98771.84;216431;1277;126012;-67
2022/04/02 14:23:06;;;;;;;5.40;3.50;;;;;;;7.19;48.70;98769.44;215630;1276;139879;-67
2022/04/02 14:28:30;;;;;;;9.70;4.60;;;;;;;7.36;49.03;98770.33;215470;1277;140184;-67
2022/04/02 14:33:56;;;;;;;4.60;4.10;;;;;;;7.52;49.14;98773.81;214065;1277;140189;-66
2022/04/02 14:39:17;;;;;;;4.80;4.00;;;;;;;7.59;48.37;98782.36;212882;1279;141222;-65
2022/04/02 14:44:39;;;;;;;9.10;3.90;;;;;;;7.56;48.00;98780.55;214644;1277;151695;-66
2022/04/02 14:50:19;;;;;;;9.80;4.50;;;;;;;7.51;48.33;98788.79;213411;1279;140356;-66
2022/04/02 14:55:44;;;;;;;6.00;3.20;;;;;;;7.37;47.97;98795.16;214590;1277;139884;-64
2022/04/02 15:00:59;;;;;;;6.70;3.60;;;;;;;7.25;47.36;98792.40;214361;1277;139232;-64
2022/04/02 15:06:12;;;;;;;9.90;4.90;;;;;;;7.15;47.43;98804.27;213526;1277;139334;-64
2022/04/02 15:11:20;;;;;;;10.20;3.70;;;;;;;7.07;47.19;98808.09;214660;1277;140101;-66
2022/04/02 15:16:29;;;;;;;5.50;4.00;;;;;;;6.94;46.83;98814.10;213711;1277;141274;-66
2022/04/02 15:21:36;;;;;;;5.30;3.60;;;;;;;6.85;46.58;98816.38;213786;1277;139077;-63
2022/04/02 15:26:47;;;;;;;5.80;4.30;;;;;;;6.73;46.57;98821.58;213639;1277;140897;-63
2022/04/02 15:31:59;;;;;;;;;;;;;;;6.68;46.71;98826.95;213107;1277;139764;-63
2022/04/02 15:37:08;;;;;;;4.60;4.20;;;;;;;6.52;46.31;98821.31;214450;1277;126356;-66
2022/04/02 15:42:29;;;;;;;4.10;3.20;;;;;;;6.43;46.19;98822.02;213855;1277;140994;-69
2022/04/02 15:48:00;;;;;;;5.60;2.70;;;;;;;6.35;45.64;98823.77;213025;1277;139684;-66
2022/04/02 15:53:08;;;;;;;8.00;3.10;;;;;;;6.29;45.68;98832.57;214327;1279;139282;-67
2022/04/02 15:58:11;;;;;;;4.40;3.10;;;;;;;6.25;45.50;98838.06;214401;1277;141605;-68
2022/04/02 16:03:42;;;;;;;4.20;3.20;;;;;;;6.20;45.12;98847.95;214423;1277;139358;-65
2022/04/02 16:08:59;;;;;;;4.30;2.50;;;;;;;6.12;45.03;98851.13;215300;1277;139893;-70
2022/04/02 16:14:09;;;;;;;7.30;3.10;;;;;;;6.03;44.88;98861.41;215025;1277;139745;-70
2022/04/02 16:19:47;;;;;;;7.30;3.20;;;;;;;5.92;44.50;98869.77;214776;1277;140287;-67
2022/04/02 16:24:56;;;;;;;5.00;3.00;;;;;;;5.81;44.34;98870.52;215494;1277;140244;-67
2022/04/02 16:29:58;;;;;;;5.10;3.40;;;;;;;5.69;43.72;98878.05;215544;1277;140888;-66
2022/04/02 16:35:10;;;;;;;8.10;3.60;;;;;;;5.59;43.82;98888.10;215379;1277;140439;-66
2022/04/02 16:40:15;;;;;;;12.00;6.00;;;;;;;5.51;43.62;98891.82;215446;1277;141440;-66
2022/04/02 16:45:18;;;;;;;5.10;3.10;;;;;;;5.42;43.42;98896.78;213194;1277;140868;-66
2022/04/02 16:50:25;;;;;;;4.30;3.60;;;;;;;5.32;43.66;98901.56;215021;1277;139587;-69
2022/04/02 16:55:27;;;;;;;5.90;3.40;;;;;;;5.22;43.95;98915.54;214943;1277;140474;-68
2022/04/02 17:00:33;;;;;;;4.90;3.10;;;;;;;5.10;44.69;98923.11;214433;1277;140923;-66
2022/04/02 17:05:39;;;;;;;8.60;3.80;;;;;;;4.97;44.97;98934.33;214062;1277;140641;-67
2022/04/02 17:10:50;;;;;;;11.20;4.00;;;;;;;4.78;45.23;98938.73;213664;1277;142043;-70
2022/04/02 17:16:18;;;;;;;13.40;3.60;;;;;;;4.59;45.68;98941.64;214106;1277;140883;-67
2022/04/02 17:21:20;;;;;;;15.10;5.10;;;;;;;4.38;46.27;98952.64;213742;1277;139720;-65
2022/04/02 17:26:34;;;;;;;12.20;3.50;;;;;;;4.24;46.56;98956.20;213296;1277;140201;-63
2022/04/02 17:31:36;;;;;;;8.50;4.10;;;;;;;4.09;46.78;98969.39;213445;1277;140474;-65
2022/04/02 17:36:39;;;;;;;100.50;11.60;;;;;;;3.96;47.19;98974.65;214372;1276;140049;-68
2022/04/02 17:41:44;;;;;;;13.00;3.90;;;;;;;3.83;47.02;98984.12;213053;1277;140263;-67
2022/04/02 17:46:57;;;;;;;7.20;2.70;;;;;;;3.69;47.42;99000.06;213080;1277;140933;-65
2022/04/02 17:52:27;;;;;;;21.10;6.50;;;;;;;3.55;47.52;99008.47;213446;1277;139470;-67
2022/04/02 17:57:29;;;;;;;10.40;3.90;;;;;;;3.41;47.95;99021.02;213869;1277;141215;-66
2022/04/02 18:02:31;;;;;;;13.80;3.50;;;;;;;3.29;48.01;99028.83;215202;1277;140788;-65
2022/04/02 18:07:34;;;;;;;8.10;4.30;;;;;;;3.18;48.14;99039.95;214026;1279;139905;-65
2022/04/02 18:12:37;;;;;;;7.70;3.30;;;;;;;3.06;48.41;99045.95;215298;1277;139252;-61
2022/04/02 18:17:39;;;;;;;7.30;3.80;;;;;;;2.96;48.39;99057.29;215195;1279;139724;-66
2022/04/02 18:22:45;;;;;;;13.30;3.40;;;;;;;2.88;48.88;99065.86;215432;1277;140631;-66
2022/04/02 18:27:47;;;;;;;10.60;3.10;;;;;;;2.79;49.34;99077.44;214847;1277;140888;-65
2022/04/02 18:32:50;;;;;;;10.20;3.70;;;;;;;2.66;49.33;99086.13;215518;1277;139746;-69
2022/04/02 18:37:52;;;;;;;4.80;2.40;;;;;;;2.53;49.74;99094.14;215629;1277;139573;-67
2022/04/02 18:42:55;;;;;;;7.50;2.80;;;;;;;2.40;49.89;99105.60;214701;1277;139637;-65
2022/04/02 18:47:57;;;;;;;10.90;3.80;;;;;;;2.29;50.10;99113.93;215464;1277;139150;-65
2022/04/02 18:53:00;;;;;;;5.10;3.20;;;;;;;2.16;50.47;99123.50;214201;1279;141104;-64
2022/04/02 18:58:03;;;;;;;6.80;3.50;;;;;;;2.03;50.42;99128.27;213413;1277;139887;-65
2022/04/02 19:03:06;;;;;;;4.10;2.60;;;;;;;1.91;50.88;99138.94;213342;1277;139319;-65
2022/04/02 19:08:09;;;;;;;11.50;3.30;;;;;;;1.78;51.47;99146.77;213748;1277;139610;-66
2022/04/02 19:13:13;;;;;;;11.90;4.40;;;;;;;1.63;51.77;99155.39;213708;1277;139902;-62
2022/04/02 19:18:16;;;;;;;11.30;3.80;;;;;;;1.49;52.13;99164.75;213950;1277;139551;-67
2022/04/02 19:23:19;;;;;;;10.80;3.90;;;;;;;1.39;52.12;99171.73;213868;1277;140202;-66
2022/04/02 19:28:23;;;;;;;3.70;2.30;;;;;;;1.28;52.42;99176.79;213232;1277;140106;-67
2022/04/02 19:33:26;;;;;;;17.70;5.60;;;;;;;1.16;52.82;99186.02;213730;1277;139526;-65
2022/04/02 19:38:30;;;;;;;6.00;3.70;;;;;;;1.05;53.31;99188.58;213124;1277;139516;-66
2022/04/02 19:43:33;;;;;;;7.80;3.30;;;;;;;0.94;53.81;99196.09;213458;1277;139976;-67
2022/04/02 19:48:35;;;;;;;7.50;3.70;;;;;;;0.85;53.74;99203.80;213219;1277;139038;-67
2022/04/02 19:53:38;;;;;;;5.00;3.40;;;;;;;0.74;54.17;99206.85;213606;1277;140225;-67
2022/04/02 19:58:42;;;;;;;11.60;4.00;;;;;;;0.65;54.49;99214.35;214030;1278;141047;-69
2022/04/02 20:03:45;;;;;;;6.10;3.90;;;;;;;0.59;54.68;99216.82;213956;1279;140088;-63
2022/04/02 20:08:47;;;;;;;9.60;3.50;;;;;;;0.52;55.08;99220.00;213485;1279;139118;-65
2022/04/02 20:13:51;;;;;;;6.40;3.80;;;;;;;0.44;55.35;99226.39;213768;1277;139339;-64
2022/04/02 20:18:55;;;;;;;7.80;4.00;;;;;;;0.37;55.81;99230.91;214423;1277;139892;-67
2022/04/02 20:23:58;;;;;;;9.40;4.60;;;;;;;0.29;56.04;99237.20;214430;1277;140179;-64
2022/04/02 20:29:02;;;;;;;9.10;3.90;;;;;;;0.22;56.21;99241.91;214006;1277;141134;-64
2022/04/02 20:34:05;;;;;;;6.90;4.60;;;;;;;0.16;56.40;99246.94;215584;1279;141280;-65
2022/04/02 20:39:09;;;;;;;8.10;4.10;;;;;;;0.10;56.69;99250.96;215085;1277;139458;-65
2022/04/02 20:44:12;;;;;;;8.80;4.60;;;;;;;0.05;56.81;99252.13;213525;1277;139725;-65
2022/04/02 20:49:21;;;;;;;12.90;4.70;;;;;;;-0.01;57.07;99261.40;215515;1277;151619;-66
2022/04/02 20:54:24;;;;;;;11.60;2.80;;;;;;;-0.07;57.35;99260.58;215293;1277;141130;-68
2022/04/02 20:59:34;;;;;;;7.00;3.90;;;;;;;-0.14;57.64;99266.55;215116;1277;139858;-65
2022/04/02 21:04:46;;;;;;;4.70;3.80;;;;;;;-0.22;57.64;99267.15;214147;1277;140446;-66
2022/04/02 21:09:52;;;;;;;6.70;3.50;;;;;;;-0.28;57.93;99273.33;214529;1276;139877;-65
2022/04/02 21:15:01;;;;;;;6.90;2.40;;;;;;;-0.37;57.88;99277.59;213517;1277;139798;-64
2022/04/02 21:20:08;;;;;;;8.00;3.50;;;;;;;-0.44;58.32;99280.45;213730;1277;139423;-64
2022/04/02 21:25:18;;;;;;;3.60;3.00;;;;;;;-0.54;58.45;99279.92;214600;1277;140855;-66
2022/04/02 21:30:24;;;;;;;5.10;3.00;;;;;;;-0.62;58.69;99283.63;213437;1277;139240;-66
2022/04/02 21:35:32;;;;;;;8.20;3.70;;;;;;;-0.68;59.01;99290.45;213453;1279;140535;-66
2022/04/02 21:40:43;;;;;;;6.60;2.00;;;;;;;-0.75;59.20;99295.52;213176;1277;142518;-64
2022/04/02 21:45:49;;;;;;;5.40;2.90;;;;;;;-0.81;59.45;99302.59;214173;1277;139202;-64
2022/04/02 21:50:53;;;;;;;4.50;2.20;;;;;;;-0.87;59.58;99304.48;212983;1277;140110;-65
2022/04/02 21:55:57;;;;;;;7.60;4.10;;;;;;;-0.92;59.78;99307.15;214201;1277;140217;-66
2022/04/02 22:01:50;;;;;;;9.90;4.00;;;;;;;-0.98;59.99;99308.12;212879;1278;140034;-67
2022/04/02 22:06:54;;;;;;;4.90;3.70;;;;;;;-1.03;60.15;99306.20;213628;1277;141164;-64
2022/04/02 22:11:58;;;;;;;7.40;3.20;;;;;;;-1.09;60.24;99312.86;213242;1278;139945;-62
2022/04/02 22:17:02;;;;;;;12.70;3.20;;;;;;;-1.16;60.48;99310.30;213780;1279;645798;-65
2022/04/02 22:22:05;;;;;;;3.60;2.50;;;;;;;-1.22;60.75;99314.65;214396;1277;140910;-65
2022/04/02 22:27:10;;;;;;;3.90;2.90;;;;;;;-1.27;60.78;99318.98;213587;1278;140076;-65
2022/04/02 22:32:13;;;;;;;9.20;2.60;;;;;;;-1.33;61.00;99319.83;213513;1278;140575;-65
2022/04/02 22:37:16;;;;;;;4.80;2.30;;;;;;;-1.38;61.20;99320.23;213833;1278;140044;-65
2022/04/02 22:42:19;;;;;;;5.10;3.10;;;;;;;-1.42;61.26;99319.10;214105;1279;140303;-65
2022/04/02 22:47:21;;;;;;;1.70;1.50;;;;;;;-1.47;61.48;99320.84;215638;1278;139612;-67
2022/04/02 22:52:25;;;;;;;6.40;3.00;;;;;;;-1.51;61.74;99320.98;215724;1277;141473;-67
2022/04/02 22:57:32;;;;;;;4.70;2.70;;;;;;;-1.50;61.88;99323.88;215347;1277;140728;-67
2022/04/02 23:02:36;;;;;;;6.70;2.60;;;;;;;-1.50;61.94;99323.81;214970;1277;142356;-67
2022/04/02 23:07:42;;;;;;;12.50;3.10;;;;;;;-1.46;62.11;99328.26;213547;1279;139778;-65
2022/04/02 23:12:46;;;;;;;4.90;2.80;;;;;;;-1.45;62.25;99328.64;213551;1279;142154;-65
2022/04/02 23:17:49;;;;;;;7.50;2.50;;;;;;;-1.48;62.29;99329.37;214283;1278;139167;-66
2022/04/02 23:22:52;;;;;;;3.80;2.20;;;;;;;-1.53;62.46;99326.05;213647;1277;139156;-65
2022/04/02 23:27:57;;;;;;;2.60;2.00;;;;;;;-1.58;62.78;99332.38;213552;1278;139912;-65
2022/04/02 23:33:01;;;;;;;3.70;2.50;;;;;;;-1.65;62.84;99331.22;214566;1275;140011;-66
2022/04/02 23:38:04;;;;;;;3.30;1.70;;;;;;;-1.72;63.00;99337.52;213326;1276;139337;-65
2022/04/02 23:43:07;;;;;;;7.50;2.50;;;;;;;-1.78;63.14;99337.30;214122;1278;139713;-65